Nizhniy Novgorod, Russia
Current Conditions -  °F | °C
As of 10:00 AM on Sunday 23 Nov 2014 (Local Time) from UWGG Reporting Station
Overcast Overcast  
Wind Chill: 20°   Ceiling: 1100
Heat Index: 28°   Visibility: 6mi
Dew Point: 23°   Wind: 9mph
Humidity: 80%   Direction: 20°NNE
Pressure: 30.39"   Gusts: NA
Location:  56.33°N, 44°E
Report Text: UWGG 230700Z 02004MPS 9999 OVC011 M02/M05 Q1029 NOSIG 36090060RMK QFE765
Loading
Personal Weather Stations






























Interactive Weather Map New forecast layout! Learn more

10-Day Weather Forecast

Advertisements
Track Severe Weather on mobile